sensor_id;sensor_type;location;lat;lon;timestamp;temperature;humidity
77985;DHT22;67177;47.240;-1.546;2023-04-28T00:01:45;15.30;83.30
77985;DHT22;67177;47.240;-1.546;2023-04-28T00:04:10;15.30;83.50
77985;DHT22;67177;47.240;-1.546;2023-04-28T00:06:36;15.20;83.50
77985;DHT22;67177;47.240;-1.546;2023-04-28T00:09:02;15.20;83.60
77985;DHT22;67177;47.240;-1.546;2023-04-28T00:11:28;15.20;83.60
77985;DHT22;67177;47.240;-1.546;2023-04-28T00:13:53;15.20;83.50
77985;DHT22;67177;47.240;-1.546;2023-04-28T00:16:19;15.30;83.60
77985;DHT22;67177;47.240;-1.546;2023-04-28T00:18:45;15.20;83.50
77985;DHT22;67177;47.240;-1.546;2023-04-28T00:21:11;15.20;83.50
77985;DHT22;67177;47.240;-1.546;2023-04-28T00:23:36;15.20;83.50
77985;DHT22;67177;47.240;-1.546;2023-04-28T00:26:02;15.20;83.60
77985;DHT22;67177;47.240;-1.546;2023-04-28T00:28:28;15.20;83.70
77985;DHT22;67177;47.240;-1.546;2023-04-28T00:30:53;15.20;83.70
77985;DHT22;67177;47.240;-1.546;2023-04-28T00:33:19;15.20;83.50
77985;DHT22;67177;47.240;-1.546;2023-04-28T00:35:44;15.20;83.60
77985;DHT22;67177;47.240;-1.546;2023-04-28T00:38:10;15.20;83.50
77985;DHT22;67177;47.240;-1.546;2023-04-28T00:40:37;15.20;83.70
77985;DHT22;67177;47.240;-1.546;2023-04-28T00:43:03;15.20;83.60
77985;DHT22;67177;47.240;-1.546;2023-04-28T00:45:30;15.20;83.60
77985;DHT22;67177;47.240;-1.546;2023-04-28T00:47:56;15.20;83.50
77985;DHT22;67177;47.240;-1.546;2023-04-28T00:50:25;15.20;83.50
77985;DHT22;67177;47.240;-1.546;2023-04-28T00:52:51;15.20;83.50
77985;DHT22;67177;47.240;-1.546;2023-04-28T00:55:17;15.20;83.50
77985;DHT22;67177;47.240;-1.546;2023-04-28T00:57:43;15.20;83.50
77985;DHT22;67177;47.240;-1.546;2023-04-28T01:00:10;15.20;83.40
77985;DHT22;67177;47.240;-1.546;2023-04-28T01:02:35;15.20;83.50
77985;DHT22;67177;47.240;-1.546;2023-04-28T01:05:02;15.20;83.50
77985;DHT22;67177;47.240;-1.546;2023-04-28T01:07:28;15.20;83.40
77985;DHT22;67177;47.240;-1.546;2023-04-28T01:09:54;15.20;83.40
77985;DHT22;67177;47.240;-1.546;2023-04-28T01:12:20;15.20;83.50
77985;DHT22;67177;47.240;-1.546;2023-04-28T01:14:46;15.20;83.40
77985;DHT22;67177;47.240;-1.546;2023-04-28T01:17:12;15.20;83.50
77985;DHT22;67177;47.240;-1.546;2023-04-28T01:19:38;15.20;83.50
77985;DHT22;67177;47.240;-1.546;2023-04-28T01:22:03;15.20;83.60
77985;DHT22;67177;47.240;-1.546;2023-04-28T01:24:29;15.10;83.80
77985;DHT22;67177;47.240;-1.546;2023-04-28T01:26:55;15.10;83.90
77985;DHT22;67177;47.240;-1.546;2023-04-28T01:29:21;15.10;84.00
77985;DHT22;67177;47.240;-1.546;2023-04-28T01:31:46;15.10;84.10
77985;DHT22;67177;47.240;-1.546;2023-04-28T01:34:12;15.10;83.80
77985;DHT22;67177;47.240;-1.546;2023-04-28T01:36:38;15.20;83.80
77985;DHT22;67177;47.240;-1.546;2023-04-28T01:39:04;15.20;83.80
77985;DHT22;67177;47.240;-1.546;2023-04-28T01:41:30;15.10;83.80
77985;DHT22;67177;47.240;-1.546;2023-04-28T01:43:58;15.20;83.80
77985;DHT22;67177;47.240;-1.546;2023-04-28T01:46:24;15.20;83.80
77985;DHT22;67177;47.240;-1.546;2023-04-28T01:48:50;15.10;83.80
77985;DHT22;67177;47.240;-1.546;2023-04-28T01:51:16;15.10;83.80
77985;DHT22;67177;47.240;-1.546;2023-04-28T01:53:41;15.10;83.80
77985;DHT22;67177;47.240;-1.546;2023-04-28T01:56:07;15.10;83.80
77985;DHT22;67177;47.240;-1.546;2023-04-28T01:58:33;15.10;84.00
77985;DHT22;67177;47.240;-1.546;2023-04-28T02:00:58;15.10;84.00
77985;DHT22;67177;47.240;-1.546;2023-04-28T02:03:24;15.10;83.90
77985;DHT22;67177;47.240;-1.546;2023-04-28T02:05:50;15.10;83.90
77985;DHT22;67177;47.240;-1.546;2023-04-28T02:08:15;15.10;83.90
77985;DHT22;67177;47.240;-1.546;2023-04-28T02:10:41;15.10;83.90
77985;DHT22;67177;47.240;-1.546;2023-04-28T02:13:07;15.10;83.90
77985;DHT22;67177;47.240;-1.546;2023-04-28T02:15:32;15.10;84.00
77985;DHT22;67177;47.240;-1.546;2023-04-28T02:17:59;15.10;83.90
77985;DHT22;67177;47.240;-1.546;2023-04-28T02:20:25;15.10;83.90
77985;DHT22;67177;47.240;-1.546;2023-04-28T02:22:51;15.10;84.00
77985;DHT22;67177;47.240;-1.546;2023-04-28T02:25:17;15.10;83.90
77985;DHT22;67177;47.240;-1.546;2023-04-28T02:27:43;15.10;84.00
77985;DHT22;67177;47.240;-1.546;2023-04-28T02:30:09;15.10;84.10
77985;DHT22;67177;47.240;-1.546;2023-04-28T02:32:34;15.10;84.20
77985;DHT22;67177;47.240;-1.546;2023-04-28T02:35:00;15.10;84.20
77985;DHT22;67177;47.240;-1.546;2023-04-28T02:37:26;15.10;84.20
77985;DHT22;67177;47.240;-1.546;2023-04-28T02:39:52;15.10;84.10
77985;DHT22;67177;47.240;-1.546;2023-04-28T02:42:17;15.10;84.00
77985;DHT22;67177;47.240;-1.546;2023-04-28T02:44:43;15.10;84.10
77985;DHT22;67177;47.240;-1.546;2023-04-28T02:47:09;15.10;84.00
77985;DHT22;67177;47.240;-1.546;2023-04-28T02:49:34;15.10;84.00
77985;DHT22;67177;47.240;-1.546;2023-04-28T02:52:00;15.10;84.00
77985;DHT22;67177;47.240;-1.546;2023-04-28T02:54:26;15.10;83.90
77985;DHT22;67177;47.240;-1.546;2023-04-28T02:56:56;15.10;83.90
77985;DHT22;67177;47.240;-1.546;2023-04-28T02:59:23;15.10;84.00
77985;DHT22;67177;47.240;-1.546;2023-04-28T03:01:50;15.10;83.90
77985;DHT22;67177;47.240;-1.546;2023-04-28T03:04:18;15.10;83.90
77985;DHT22;67177;47.240;-1.546;2023-04-28T03:06:44;15.10;83.90
77985;DHT22;67177;47.240;-1.546;2023-04-28T03:09:10;15.10;84.00
77985;DHT22;67177;47.240;-1.546;2023-04-28T03:11:37;15.10;84.10
77985;DHT22;67177;47.240;-1.546;2023-04-28T03:14:02;15.10;84.20
77985;DHT22;67177;47.240;-1.546;2023-04-28T03:16:28;15.10;84.30
77985;DHT22;67177;47.240;-1.546;2023-04-28T03:18:54;15.10;84.10
77985;DHT22;67177;47.240;-1.546;2023-04-28T03:21:19;15.10;84.00
77985;DHT22;67177;47.240;-1.546;2023-04-28T03:23:45;15.10;84.10
77985;DHT22;67177;47.240;-1.546;2023-04-28T03:26:11;15.10;84.10
77985;DHT22;67177;47.240;-1.546;2023-04-28T03:28:37;15.10;84.10
77985;DHT22;67177;47.240;-1.546;2023-04-28T03:31:02;15.00;84.10
77985;DHT22;67177;47.240;-1.546;2023-04-28T03:33:28;15.00;84.10
77985;DHT22;67177;47.240;-1.546;2023-04-28T03:35:53;15.00;84.20
77985;DHT22;67177;47.240;-1.546;2023-04-28T03:38:19;15.10;84.20
77985;DHT22;67177;47.240;-1.546;2023-04-28T03:40:45;15.00;84.10
77985;DHT22;67177;47.240;-1.546;2023-04-28T03:43:11;15.00;84.20
77985;DHT22;67177;47.240;-1.546;2023-04-28T03:45:37;15.00;84.10
77985;DHT22;67177;47.240;-1.546;2023-04-28T03:48:03;15.00;84.10
77985;DHT22;67177;47.240;-1.546;2023-04-28T03:50:28;15.00;84.10
77985;DHT22;67177;47.240;-1.546;2023-04-28T03:52:54;15.00;84.10
77985;DHT22;67177;47.240;-1.546;2023-04-28T03:55:20;14.90;84.20
77985;DHT22;67177;47.240;-1.546;2023-04-28T03:57:46;14.90;84.20
77985;DHT22;67177;47.240;-1.546;2023-04-28T04:00:12;14.90;84.20
77985;DHT22;67177;47.240;-1.546;2023-04-28T04:02:38;14.90;84.20
77985;DHT22;67177;47.240;-1.546;2023-04-28T04:05:04;14.90;84.20
77985;DHT22;67177;47.240;-1.546;2023-04-28T04:07:29;14.90;84.30
77985;DHT22;67177;47.240;-1.546;2023-04-28T04:09:55;15.00;84.20
77985;DHT22;67177;47.240;-1.546;2023-04-28T04:12:21;15.00;84.20
77985;DHT22;67177;47.240;-1.546;2023-04-28T04:14:46;15.00;84.20
77985;DHT22;67177;47.240;-1.546;2023-04-28T04:17:12;15.00;84.20
77985;DHT22;67177;47.240;-1.546;2023-04-28T04:19:38;15.00;84.10
77985;DHT22;67177;47.240;-1.546;2023-04-28T04:22:03;15.00;84.00
77985;DHT22;67177;47.240;-1.546;2023-04-28T04:24:29;15.00;84.20
77985;DHT22;67177;47.240;-1.546;2023-04-28T04:26:54;15.00;84.20
77985;DHT22;67177;47.240;-1.546;2023-04-28T04:29:20;15.00;84.10
77985;DHT22;67177;47.240;-1.546;2023-04-28T04:31:46;15.00;84.10
77985;DHT22;67177;47.240;-1.546;2023-04-28T04:34:11;15.00;84.10
77985;DHT22;67177;47.240;-1.546;2023-04-28T04:36:37;15.00;84.10
77985;DHT22;67177;47.240;-1.546;2023-04-28T04:39:03;15.00;84.20
77985;DHT22;67177;47.240;-1.546;2023-04-28T04:41:28;15.00;84.40
77985;DHT22;67177;47.240;-1.546;2023-04-28T04:43:54;15.00;84.30
77985;DHT22;67177;47.240;-1.546;2023-04-28T04:46:20;15.00;84.30
77985;DHT22;67177;47.240;-1.546;2023-04-28T04:48:46;15.00;84.50
77985;DHT22;67177;47.240;-1.546;2023-04-28T04:51:12;15.00;84.40
77985;DHT22;67177;47.240;-1.546;2023-04-28T04:53:37;15.00;84.50
77985;DHT22;67177;47.240;-1.546;2023-04-28T04:56:03;15.00;84.40
77985;DHT22;67177;47.240;-1.546;2023-04-28T04:58:29;15.00;84.40
77985;DHT22;67177;47.240;-1.546;2023-04-28T05:00:55;15.00;84.30
77985;DHT22;67177;47.240;-1.546;2023-04-28T05:03:21;15.00;84.30
77985;DHT22;67177;47.240;-1.546;2023-04-28T05:05:47;15.00;84.30
77985;DHT22;67177;47.240;-1.546;2023-04-28T05:08:13;15.00;84.30
77985;DHT22;67177;47.240;-1.546;2023-04-28T05:10:38;15.00;84.20
77985;DHT22;67177;47.240;-1.546;2023-04-28T05:13:04;15.00;84.20
77985;DHT22;67177;47.240;-1.546;2023-04-28T05:15:30;15.00;84.20
77985;DHT22;67177;47.240;-1.546;2023-04-28T05:17:56;15.00;84.20
77985;DHT22;67177;47.240;-1.546;2023-04-28T05:20:22;15.10;84.10
77985;DHT22;67177;47.240;-1.546;2023-04-28T05:22:48;15.10;83.90
77985;DHT22;67177;47.240;-1.546;2023-04-28T05:25:14;15.10;83.90
77985;DHT22;67177;47.240;-1.546;2023-04-28T05:27:40;15.10;83.90
77985;DHT22;67177;47.240;-1.546;2023-04-28T05:30:07;15.10;84.00
77985;DHT22;67177;47.240;-1.546;2023-04-28T05:32:34;15.10;83.90
77985;DHT22;67177;47.240;-1.546;2023-04-28T05:35:00;15.10;83.80
77985;DHT22;67177;47.240;-1.546;2023-04-28T05:37:25;15.10;83.70
77985;DHT22;67177;47.240;-1.546;2023-04-28T05:39:51;15.20;83.70
77985;DHT22;67177;47.240;-1.546;2023-04-28T05:42:17;15.20;83.80
77985;DHT22;67177;47.240;-1.546;2023-04-28T05:44:42;15.20;83.70
77985;DHT22;67177;47.240;-1.546;2023-04-28T05:47:08;15.20;83.70
77985;DHT22;67177;47.240;-1.546;2023-04-28T05:49:33;15.20;83.70
77985;DHT22;67177;47.240;-1.546;2023-04-28T05:52:00;15.20;83.60
77985;DHT22;67177;47.240;-1.546;2023-04-28T05:54:25;15.30;83.50
77985;DHT22;67177;47.240;-1.546;2023-04-28T05:56:52;15.20;83.50
77985;DHT22;67177;47.240;-1.546;2023-04-28T05:59:17;15.30;83.50
77985;DHT22;67177;47.240;-1.546;2023-04-28T06:01:44;15.30;83.40
77985;DHT22;67177;47.240;-1.546;2023-04-28T06:04:10;15.40;83.40
77985;DHT22;67177;47.240;-1.546;2023-04-28T06:06:35;15.40;83.20
77985;DHT22;67177;47.240;-1.546;2023-04-28T06:09:02;15.50;83.00
77985;DHT22;67177;47.240;-1.546;2023-04-28T06:11:27;15.50;82.90
77985;DHT22;67177;47.240;-1.546;2023-04-28T06:13:53;15.50;83.00
77985;DHT22;67177;47.240;-1.546;2023-04-28T06:16:19;15.50;82.90
77985;DHT22;67177;47.240;-1.546;2023-04-28T06:18:44;15.60;82.90
77985;DHT22;67177;47.240;-1.546;2023-04-28T06:21:10;15.60;83.00
77985;DHT22;67177;47.240;-1.546;2023-04-28T06:23:36;15.60;83.00
77985;DHT22;67177;47.240;-1.546;2023-04-28T06:26:03;15.60;83.00
77985;DHT22;67177;47.240;-1.546;2023-04-28T06:28:28;15.70;83.00
77985;DHT22;67177;47.240;-1.546;2023-04-28T06:30:54;15.70;83.00
77985;DHT22;67177;47.240;-1.546;2023-04-28T06:33:20;15.70;82.80
77985;DHT22;67177;47.240;-1.546;2023-04-28T06:35:46;15.90;82.60
77985;DHT22;67177;47.240;-1.546;2023-04-28T06:38:11;16.00;82.40
77985;DHT22;67177;47.240;-1.546;2023-04-28T06:40:37;16.10;82.40
77985;DHT22;67177;47.240;-1.546;2023-04-28T06:43:05;16.10;82.60
77985;DHT22;67177;47.240;-1.546;2023-04-28T06:45:30;16.00;82.60
77985;DHT22;67177;47.240;-1.546;2023-04-28T06:47:56;16.00;82.50
77985;DHT22;67177;47.240;-1.546;2023-04-28T06:50:23;16.10;82.30
77985;DHT22;67177;47.240;-1.546;2023-04-28T06:52:48;16.30;82.10
77985;DHT22;67177;47.240;-1.546;2023-04-28T06:55:16;16.50;81.80
77985;DHT22;67177;47.240;-1.546;2023-04-28T06:57:42;16.60;81.60
77985;DHT22;67177;47.240;-1.546;2023-04-28T07:00:09;16.60;81.50
77985;DHT22;67177;47.240;-1.546;2023-04-28T07:02:35;16.60;81.50
77985;DHT22;67177;47.240;-1.546;2023-04-28T07:05:01;16.60;81.50
77985;DHT22;67177;47.240;-1.546;2023-04-28T07:07:28;16.60;81.50
77985;DHT22;67177;47.240;-1.546;2023-04-28T07:09:54;16.60;81.50
77985;DHT22;67177;47.240;-1.546;2023-04-28T07:12:20;16.60;81.40
77985;DHT22;67177;47.240;-1.546;2023-04-28T07:14:46;16.60;81.30
77985;DHT22;67177;47.240;-1.546;2023-04-28T07:17:12;16.60;81.30
77985;DHT22;67177;47.240;-1.546;2023-04-28T07:19:37;16.70;81.30
77985;DHT22;67177;47.240;-1.546;2023-04-28T07:22:03;16.70;81.30
77985;DHT22;67177;47.240;-1.546;2023-04-28T07:24:30;16.70;81.20
77985;DHT22;67177;47.240;-1.546;2023-04-28T07:26:56;16.70;81.30
77985;DHT22;67177;47.240;-1.546;2023-04-28T07:29:22;16.70;81.40
77985;DHT22;67177;47.240;-1.546;2023-04-28T07:31:48;16.70;81.20
77985;DHT22;67177;47.240;-1.546;2023-04-28T07:34:14;16.70;81.10
77985;DHT22;67177;47.240;-1.546;2023-04-28T07:36:40;16.70;81.10
77985;DHT22;67177;47.240;-1.546;2023-04-28T07:39:06;16.80;81.00
77985;DHT22;67177;47.240;-1.546;2023-04-28T07:41:38;16.80;80.90
77985;DHT22;67177;47.240;-1.546;2023-04-28T07:44:05;16.90;80.80
77985;DHT22;67177;47.240;-1.546;2023-04-28T07:46:32;16.90;80.80
77985;DHT22;67177;47.240;-1.546;2023-04-28T07:48:58;16.80;80.60
77985;DHT22;67177;47.240;-1.546;2023-04-28T07:51:24;16.90;80.40
77985;DHT22;67177;47.240;-1.546;2023-04-28T07:53:49;16.90;80.30
77985;DHT22;67177;47.240;-1.546;2023-04-28T07:56:15;16.90;80.30
77985;DHT22;67177;47.240;-1.546;2023-04-28T07:58:41;16.90;80.20
77985;DHT22;67177;47.240;-1.546;2023-04-28T08:01:07;17.00;80.10
77985;DHT22;67177;47.240;-1.546;2023-04-28T08:03:32;17.10;80.00
77985;DHT22;67177;47.240;-1.546;2023-04-28T08:05:59;17.30;79.70
77985;DHT22;67177;47.240;-1.546;2023-04-28T08:08:24;17.50;79.30
77985;DHT22;67177;47.240;-1.546;2023-04-28T08:10:50;17.70;78.90
77985;DHT22;67177;47.240;-1.546;2023-04-28T08:13:17;17.70;78.90
77985;DHT22;67177;47.240;-1.546;2023-04-28T08:15:43;17.80;79.00
77985;DHT22;67177;47.240;-1.546;2023-04-28T08:18:08;17.90;78.80
77985;DHT22;67177;47.240;-1.546;2023-04-28T08:20:34;17.90;78.70
77985;DHT22;67177;47.240;-1.546;2023-04-28T08:22:59;17.90;78.70
77985;DHT22;67177;47.240;-1.546;2023-04-28T08:25:25;17.80;78.90
77985;DHT22;67177;47.240;-1.546;2023-04-28T08:27:51;17.80;78.90
77985;DHT22;67177;47.240;-1.546;2023-04-28T08:30:17;17.90;78.80
77985;DHT22;67177;47.240;-1.546;2023-04-28T08:32:42;17.80;78.70
77985;DHT22;67177;47.240;-1.546;2023-04-28T08:35:08;17.80;78.40
77985;DHT22;67177;47.240;-1.546;2023-04-28T08:37:34;17.80;78.50
77985;DHT22;67177;47.240;-1.546;2023-04-28T08:40:00;17.80;78.40
77985;DHT22;67177;47.240;-1.546;2023-04-28T08:42:30;18.00;78.00
77985;DHT22;67177;47.240;-1.546;2023-04-28T08:44:57;18.20;77.60
77985;DHT22;67177;47.240;-1.546;2023-04-28T08:47:36;18.40;77.40
77985;DHT22;67177;47.240;-1.546;2023-04-28T08:50:06;18.60;77.20
77985;DHT22;67177;47.240;-1.546;2023-04-28T08:52:33;18.80;76.90
77985;DHT22;67177;47.240;-1.546;2023-04-28T08:55:00;19.20;76.40
77985;DHT22;67177;47.240;-1.546;2023-04-28T08:57:28;19.30;76.40
77985;DHT22;67177;47.240;-1.546;2023-04-28T08:59:55;19.40;76.30
77985;DHT22;67177;47.240;-1.546;2023-04-28T09:02:21;19.50;75.90
77985;DHT22;67177;47.240;-1.546;2023-04-28T09:04:47;19.70;75.30
77985;DHT22;67177;47.240;-1.546;2023-04-28T09:07:13;19.90;75.20
77985;DHT22;67177;47.240;-1.546;2023-04-28T09:09:39;19.90;74.90
77985;DHT22;67177;47.240;-1.546;2023-04-28T09:12:06;20.00;74.70
77985;DHT22;67177;47.240;-1.546;2023-04-28T09:14:34;20.30;74.00
77985;DHT22;67177;47.240;-1.546;2023-04-28T09:17:01;20.50;73.90
77985;DHT22;67177;47.240;-1.546;2023-04-28T09:19:34;20.50;73.50
77985;DHT22;67177;47.240;-1.546;2023-04-28T09:22:04;20.30;73.50
77985;DHT22;67177;47.240;-1.546;2023-04-28T09:26:56;20.50;73.40
77985;DHT22;67177;47.240;-1.546;2023-04-28T09:29:22;20.60;73.20
77985;DHT22;67177;47.240;-1.546;2023-04-28T09:31:48;20.60;73.00
77985;DHT22;67177;47.240;-1.546;2023-04-28T09:34:14;20.90;72.40
77985;DHT22;67177;47.240;-1.546;2023-04-28T09:36:39;21.00;72.20
77985;DHT22;67177;47.240;-1.546;2023-04-28T09:39:05;21.10;71.90
77985;DHT22;67177;47.240;-1.546;2023-04-28T09:41:39;21.20;71.50
77985;DHT22;67177;47.240;-1.546;2023-04-28T09:44:18;21.30;71.30
77985;DHT22;67177;47.240;-1.546;2023-04-28T09:46:46;21.40;70.70
77985;DHT22;67177;47.240;-1.546;2023-04-28T09:49:12;21.20;70.60
77985;DHT22;67177;47.240;-1.546;2023-04-28T09:51:38;21.20;70.90
77985;DHT22;67177;47.240;-1.546;2023-04-28T09:54:05;21.10;71.00
77985;DHT22;67177;47.240;-1.546;2023-04-28T09:56:32;20.90;71.10
77985;DHT22;67177;47.240;-1.546;2023-04-28T09:59:00;20.90;71.30
77985;DHT22;67177;47.240;-1.546;2023-04-28T10:01:46;21.20;70.80
77985;DHT22;67177;47.240;-1.546;2023-04-28T10:04:13;21.40;70.10
77985;DHT22;67177;47.240;-1.546;2023-04-28T10:06:39;21.30;69.90
77985;DHT22;67177;47.240;-1.546;2023-04-28T10:09:06;21.30;69.30
77985;DHT22;67177;47.240;-1.546;2023-04-28T10:11:32;21.30;69.30
77985;DHT22;67177;47.240;-1.546;2023-04-28T10:13:59;21.20;69.50
77985;DHT22;67177;47.240;-1.546;2023-04-28T10:16:26;21.30;69.50
77985;DHT22;67177;47.240;-1.546;2023-04-28T10:18:55;21.30;69.60
77985;DHT22;67177;47.240;-1.546;2023-04-28T10:21:22;21.50;69.40
77985;DHT22;67177;47.240;-1.546;2023-04-28T10:24:09;21.40;69.20
77985;DHT22;67177;47.240;-1.546;2023-04-28T10:27:01;21.30;69.50
77985;DHT22;67177;47.240;-1.546;2023-04-28T10:29:30;21.40;69.50
77985;DHT22;67177;47.240;-1.546;2023-04-28T10:32:18;21.40;68.60
77985;DHT22;67177;47.240;-1.546;2023-04-28T10:34:44;21.50;68.60
77985;DHT22;67177;47.240;-1.546;2023-04-28T10:37:10;21.80;67.80
77985;DHT22;67177;47.240;-1.546;2023-04-28T10:39:36;21.90;67.50
77985;DHT22;67177;47.240;-1.546;2023-04-28T10:42:02;22.00;67.00
77985;DHT22;67177;47.240;-1.546;2023-04-28T10:47:09;22.00;66.10
77985;DHT22;67177;47.240;-1.546;2023-04-28T10:55:31;21.80;67.00
77985;DHT22;67177;47.240;-1.546;2023-04-28T11:00:43;21.50;67.20
77985;DHT22;67177;47.240;-1.546;2023-04-28T11:03:42;21.50;66.60
77985;DHT22;67177;47.240;-1.546;2023-04-28T11:06:24;21.50;66.40
77985;DHT22;67177;47.240;-1.546;2023-04-28T11:08:55;21.70;65.80
77985;DHT22;67177;47.240;-1.546;2023-04-28T11:16:56;21.70;65.30
77985;DHT22;67177;47.240;-1.546;2023-04-28T11:19:38;21.60;65.30
77985;DHT22;67177;47.240;-1.546;2023-04-28T11:22:06;21.40;65.80
77985;DHT22;67177;47.240;-1.546;2023-04-28T11:24:37;21.40;65.80
77985;DHT22;67177;47.240;-1.546;2023-04-28T11:27:03;21.50;65.80
77985;DHT22;67177;47.240;-1.546;2023-04-28T11:29:39;21.50;66.00
77985;DHT22;67177;47.240;-1.546;2023-04-28T11:32:07;21.50;66.00
77985;DHT22;67177;47.240;-1.546;2023-04-28T11:34:34;21.50;65.60
77985;DHT22;67177;47.240;-1.546;2023-04-28T11:37:01;21.60;65.70
77985;DHT22;67177;47.240;-1.546;2023-04-28T11:39:32;21.70;65.60
77985;DHT22;67177;47.240;-1.546;2023-04-28T11:42:08;21.80;64.90
77985;DHT22;67177;47.240;-1.546;2023-04-28T11:44:34;21.70;64.90
77985;DHT22;67177;47.240;-1.546;2023-04-28T11:47:01;21.80;64.90
77985;DHT22;67177;47.240;-1.546;2023-04-28T11:49:30;21.80;64.90
77985;DHT22;67177;47.240;-1.546;2023-04-28T11:52:03;21.70;64.90
77985;DHT22;67177;47.240;-1.546;2023-04-28T11:54:30;21.60;65.00
77985;DHT22;67177;47.240;-1.546;2023-04-28T11:56:57;21.50;65.00
77985;DHT22;67177;47.240;-1.546;2023-04-28T11:59:27;21.30;65.10
77985;DHT22;67177;47.240;-1.546;2023-04-28T12:01:54;21.10;65.50
77985;DHT22;67177;47.240;-1.546;2023-04-28T12:04:31;20.90;65.60
77985;DHT22;67177;47.240;-1.546;2023-04-28T12:07:02;20.70;65.90
77985;DHT22;67177;47.240;-1.546;2023-04-28T12:09:28;20.60;66.20
77985;DHT22;67177;47.240;-1.546;2023-04-28T12:11:57;20.60;66.40
77985;DHT22;67177;47.240;-1.546;2023-04-28T12:14:23;20.50;66.50
77985;DHT22;67177;47.240;-1.546;2023-04-28T12:16:49;20.50;66.60
77985;DHT22;67177;47.240;-1.546;2023-04-28T12:19:16;20.60;66.60
77985;DHT22;67177;47.240;-1.546;2023-04-28T12:21:42;20.80;66.40
77985;DHT22;67177;47.240;-1.546;2023-04-28T12:24:14;21.00;66.10
77985;DHT22;67177;47.240;-1.546;2023-04-28T12:26:40;21.40;65.80
77985;DHT22;67177;47.240;-1.546;2023-04-28T12:29:07;21.60;65.60
77985;DHT22;67177;47.240;-1.546;2023-04-28T12:31:50;21.60;65.50
77985;DHT22;67177;47.240;-1.546;2023-04-28T12:34:17;21.70;65.70
77985;DHT22;67177;47.240;-1.546;2023-04-28T12:36:43;21.80;65.30
77985;DHT22;67177;47.240;-1.546;2023-04-28T12:39:14;21.90;65.00
77985;DHT22;67177;47.240;-1.546;2023-04-28T12:41:41;22.10;64.70
77985;DHT22;67177;47.240;-1.546;2023-04-28T12:44:07;22.20;64.50
77985;DHT22;67177;47.240;-1.546;2023-04-28T12:46:32;22.30;64.50
77985;DHT22;67177;47.240;-1.546;2023-04-28T12:48:58;22.40;64.40
77985;DHT22;67177;47.240;-1.546;2023-04-28T12:51:24;22.50;63.90
77985;DHT22;67177;47.240;-1.546;2023-04-28T12:53:49;22.60;63.50
77985;DHT22;67177;47.240;-1.546;2023-04-28T12:56:15;22.70;63.50
77985;DHT22;67177;47.240;-1.546;2023-04-28T12:58:41;22.70;63.10
77985;DHT22;67177;47.240;-1.546;2023-04-28T13:01:06;22.70;63.10
77985;DHT22;67177;47.240;-1.546;2023-04-28T13:03:32;22.70;63.10
77985;DHT22;67177;47.240;-1.546;2023-04-28T13:05:58;22.70;62.80
77985;DHT22;67177;47.240;-1.546;2023-04-28T13:08:24;22.70;62.90
77985;DHT22;67177;47.240;-1.546;2023-04-28T13:10:49;22.80;62.50
77985;DHT22;67177;47.240;-1.546;2023-04-28T13:13:15;22.90;62.50
77985;DHT22;67177;47.240;-1.546;2023-04-28T13:15:41;22.90;62.30
77985;DHT22;67177;47.240;-1.546;2023-04-28T13:18:06;22.70;62.10
77985;DHT22;67177;47.240;-1.546;2023-04-28T13:20:32;22.50;61.90
77985;DHT22;67177;47.240;-1.546;2023-04-28T13:22:58;22.20;62.20
77985;DHT22;67177;47.240;-1.546;2023-04-28T13:25:23;22.20;62.20
77985;DHT22;67177;47.240;-1.546;2023-04-28T13:27:49;22.20;62.40
77985;DHT22;67177;47.240;-1.546;2023-04-28T13:30:15;22.10;62.10
77985;DHT22;67177;47.240;-1.546;2023-04-28T13:32:40;21.90;62.40
77985;DHT22;67177;47.240;-1.546;2023-04-28T13:35:06;21.90;62.60
77985;DHT22;67177;47.240;-1.546;2023-04-28T13:37:33;21.90;62.70
77985;DHT22;67177;47.240;-1.546;2023-04-28T13:40:00;22.10;62.40
77985;DHT22;67177;47.240;-1.546;2023-04-28T13:42:28;22.10;62.60
77985;DHT22;67177;47.240;-1.546;2023-04-28T13:44:54;22.30;62.20
77985;DHT22;67177;47.240;-1.546;2023-04-28T13:47:19;22.20;62.10
77985;DHT22;67177;47.240;-1.546;2023-04-28T13:49:45;22.00;62.20
77985;DHT22;67177;47.240;-1.546;2023-04-28T13:52:12;21.80;62.50
77985;DHT22;67177;47.240;-1.546;2023-04-28T13:54:38;21.80;62.50
77985;DHT22;67177;47.240;-1.546;2023-04-28T13:57:05;21.70;62.50
77985;DHT22;67177;47.240;-1.546;2023-04-28T13:59:32;21.70;62.40
77985;DHT22;67177;47.240;-1.546;2023-04-28T14:01:58;21.60;62.50
77985;DHT22;67177;47.240;-1.546;2023-04-28T14:04:23;21.70;62.40
77985;DHT22;67177;47.240;-1.546;2023-04-28T14:06:49;21.80;62.40
77985;DHT22;67177;47.240;-1.546;2023-04-28T14:09:16;22.00;62.30
77985;DHT22;67177;47.240;-1.546;2023-04-28T14:11:41;22.00;62.10
77985;DHT22;67177;47.240;-1.546;2023-04-28T14:14:07;22.00;61.90
77985;DHT22;67177;47.240;-1.546;2023-04-28T14:16:33;21.90;61.90
77985;DHT22;67177;47.240;-1.546;2023-04-28T14:18:58;21.80;61.90
77985;DHT22;67177;47.240;-1.546;2023-04-28T14:21:24;21.70;62.20
77985;DHT22;67177;47.240;-1.546;2023-04-28T14:23:50;21.60;62.30
77985;DHT22;67177;47.240;-1.546;2023-04-28T14:26:16;21.60;62.60
77985;DHT22;67177;47.240;-1.546;2023-04-28T14:28:43;21.60;62.70
77985;DHT22;67177;47.240;-1.546;2023-04-28T14:31:08;21.60;62.60
77985;DHT22;67177;47.240;-1.546;2023-04-28T14:33:34;21.70;62.30
77985;DHT22;67177;47.240;-1.546;2023-04-28T14:36:00;21.70;62.30
77985;DHT22;67177;47.240;-1.546;2023-04-28T14:38:26;21.70;62.40
77985;DHT22;67177;47.240;-1.546;2023-04-28T14:40:53;21.90;62.40
77985;DHT22;67177;47.240;-1.546;2023-04-28T14:43:18;22.00;62.00
77985;DHT22;67177;47.240;-1.546;2023-04-28T14:45:44;22.20;62.00
77985;DHT22;67177;47.240;-1.546;2023-04-28T14:48:10;22.30;61.80
77985;DHT22;67177;47.240;-1.546;2023-04-28T14:50:37;22.30;61.80
77985;DHT22;67177;47.240;-1.546;2023-04-28T14:53:03;22.30;61.70
77985;DHT22;67177;47.240;-1.546;2023-04-28T14:55:32;22.30;61.70
77985;DHT22;67177;47.240;-1.546;2023-04-28T14:57:58;22.20;61.80
77985;DHT22;67177;47.240;-1.546;2023-04-28T15:00:24;22.10;61.80
77985;DHT22;67177;47.240;-1.546;2023-04-28T15:02:49;22.00;62.10
77985;DHT22;67177;47.240;-1.546;2023-04-28T15:05:15;22.00;62.00
77985;DHT22;67177;47.240;-1.546;2023-04-28T15:07:41;22.00;61.90
77985;DHT22;67177;47.240;-1.546;2023-04-28T15:10:07;21.90;62.10
77985;DHT22;67177;47.240;-1.546;2023-04-28T15:12:33;21.90;62.10
77985;DHT22;67177;47.240;-1.546;2023-04-28T15:14:58;21.90;61.90
77985;DHT22;67177;47.240;-1.546;2023-04-28T15:17:24;21.90;61.90
77985;DHT22;67177;47.240;-1.546;2023-04-28T15:19:50;21.80;62.00
77985;DHT22;67177;47.240;-1.546;2023-04-28T15:22:16;21.80;62.10
77985;DHT22;67177;47.240;-1.546;2023-04-28T15:24:42;21.70;62.20
77985;DHT22;67177;47.240;-1.546;2023-04-28T15:27:07;21.60;62.50
77985;DHT22;67177;47.240;-1.546;2023-04-28T15:29:33;21.40;62.60
77985;DHT22;67177;47.240;-1.546;2023-04-28T15:31:59;21.40;62.90